Kingsley, Michigan
Current Conditions -  °F | °C
As of 10:53 PM on Saturday 25 Oct 2014 (Local Time) from KTVC Reporting Station
Clear Clear  
Wind Chill: 53°   Ceiling: Unl
Heat Index: 53°   Visibility: 10mi
Dew Point: 31°   Wind: 8mph
Humidity: 43%   Direction: 310°NW
Pressure: 29.82"   Gusts: NA
Location:  44.58°N, 85.54°W
Report Text: KTVC 260253Z 31007KT 10SM CLR 12/M01 A2982 RMK AO2 SLP098 T01171006 51018
Loading
Personal Weather Stations






























Interactive Weather Map
Tropical Storm Tracking
New forecast layout! Learn more

10-Day Weather Forecast

Advertisements
Track Severe Weather on mobile